Time;durP1;ratioP1;P1;durP2;ratioP2;P2;SDS_P1;SDS_P2;PMS_P1;PMS_P2;Temp;Humidity;BMP_temperature;BMP_pressure;BME280_temperature;BME280_humidity;BME280_pressure;Samples;Min_cycle;Max_cycle;Signal;HPM_P1;HPM_P2
2023/10/30 00:00:59;;;;;;;12.00;11.30;;;12.30;99.90;;;;;;4845067;29;20250;-78
2023/10/30 00:03:27;;;;;;;11.43;10.73;;;12.30;99.90;;;;;;4848619;29;20286;-78
2023/10/30 00:05:53;;;;;;;11.23;10.53;;;12.30;99.90;;;;;;4849264;29;20259;-78
2023/10/30 00:08:21;;;;;;;11.57;10.87;;;12.30;99.90;;;;;;4851587;29;20202;-78
2023/10/30 00:10:48;;;;;;;11.17;10.57;;;12.30;99.90;;;;;;4851582;29;20220;-79
2023/10/30 00:13:15;;;;;;;11.80;11.10;;;12.30;99.90;;;;;;4849214;29;20715;-78
2023/10/30 00:15:43;;;;;;;11.40;10.70;;;12.30;99.90;;;;;;4849947;29;20202;-79
2023/10/30 00:18:10;;;;;;;11.10;10.50;;;12.20;99.90;;;;;;4848395;29;20204;-78
2023/10/30 00:20:37;;;;;;;11.53;10.83;;;12.20;99.90;;;;;;4847308;29;20199;-78
2023/10/30 00:23:04;;;;;;;12.03;11.23;;;12.20;99.90;;;;;;4852123;29;20222;-78
2023/10/30 00:25:31;;;;;;;12.83;12.13;;;12.10;99.90;;;;;;4852781;29;20202;-78
2023/10/30 00:28:00;;;;;;;12.00;11.30;;;12.20;99.90;;;;;;4865671;29;20698;-78
2023/10/30 00:30:26;;;;;;;12.10;11.30;;;12.10;99.90;;;;;;4853101;29;20688;-78
2023/10/30 00:32:55;;;;;;;11.73;11.07;;;12.20;99.90;;;;;;4858152;29;20221;-78
2023/10/30 00:35:21;;;;;;;11.73;11.03;;;12.10;99.90;;;;;;4846904;29;20201;-78
2023/10/30 00:37:48;;;;;;;11.97;11.27;;;12.10;99.90;;;;;;4847590;29;20217;-78
2023/10/30 00:40:15;;;;;;;12.07;11.37;;;12.10;99.90;;;;;;4852674;29;20230;-77
2023/10/30 00:42:42;;;;;;;12.43;11.63;;;12.10;99.90;;;;;;4860812;29;20499;-79
2023/10/30 00:45:10;;;;;;;11.90;11.20;;;12.00;99.90;;;;;;4850847;29;20203;-78
2023/10/30 00:47:38;;;;;;;12.40;11.70;;;12.00;99.90;;;;;;4850884;29;20691;-78
2023/10/30 00:50:08;;;;;;;12.50;11.80;;;12.00;99.90;;;;;;4843712;29;20808;-78
2023/10/30 00:52:35;;;;;;;12.40;11.70;;;12.00;99.90;;;;;;4858779;29;20213;-78
2023/10/30 00:55:02;;;;;;;12.80;12.10;;;12.00;99.90;;;;;;4847873;29;20693;-79
2023/10/30 00:57:29;;;;;;;12.40;11.53;;;11.90;99.90;;;;;;4848501;29;20210;-77
2023/10/30 00:59:56;;;;;;;11.63;11.00;;;11.90;99.90;;;;;;4861527;29;20248;-78
2023/10/30 01:02:22;;;;;;;12.40;11.60;;;11.80;99.90;;;;;;4857529;29;20208;-78
2023/10/30 01:04:49;;;;;;;12.40;11.70;;;11.80;99.90;;;;;;4860067;29;20236;-78
2023/10/30 01:07:17;;;;;;;13.57;12.67;;;11.70;99.90;;;;;;4850650;29;20215;-78
2023/10/30 01:09:44;;;;;;;12.70;11.80;;;11.70;99.90;;;;;;4852194;29;20273;-77
2023/10/30 01:12:12;;;;;;;12.43;11.73;;;11.70;99.90;;;;;;4849293;29;20661;-78
2023/10/30 01:14:38;;;;;;;12.23;11.43;;;11.60;99.90;;;;;;4850438;29;20223;-78
2023/10/30 01:17:05;;;;;;;11.80;11.10;;;11.60;99.90;;;;;;4843673;29;20213;-78
2023/10/30 01:19:32;;;;;;;13.50;12.60;;;11.50;99.90;;;;;;4861616;29;20264;-78
2023/10/30 01:21:59;;;;;;;12.60;11.80;;;11.50;99.90;;;;;;4858990;29;20581;-78
2023/10/30 01:24:27;;;;;;;12.30;11.60;;;11.40;99.90;;;;;;4848663;29;20229;-78
2023/10/30 01:26:54;;;;;;;12.70;12.00;;;11.30;99.90;;;;;;4855811;29;20267;-78
2023/10/30 01:29:21;;;;;;;12.93;12.23;;;11.30;99.90;;;;;;4851112;29;20204;-78
2023/10/30 01:31:48;;;;;;;12.97;12.27;;;11.30;99.90;;;;;;4852877;29;20305;-78
2023/10/30 01:34:14;;;;;;;12.77;12.07;;;11.20;99.90;;;;;;4862352;29;20222;-78
2023/10/30 01:36:41;;;;;;;12.47;11.67;;;11.20;99.90;;;;;;4862251;29;20275;-78
2023/10/30 01:39:08;;;;;;;12.33;11.53;;;11.20;99.90;;;;;;4855619;29;20613;-79
2023/10/30 01:41:36;;;;;;;12.20;11.50;;;11.10;99.90;;;;;;4850313;29;20199;-78
2023/10/30 01:44:03;;;;;;;13.30;12.50;;;11.10;99.90;;;;;;4846359;29;20253;-78
2023/10/30 01:46:30;;;;;;;13.53;12.67;;;11.10;99.90;;;;;;4857921;29;20579;-78
2023/10/30 01:48:58;;;;;;;12.93;12.03;;;11.00;99.90;;;;;;4848306;29;20204;-78
2023/10/30 01:51:25;;;;;;;12.60;11.90;;;10.90;99.90;;;;;;4851941;29;20642;-78
2023/10/30 01:53:53;;;;;;;13.03;12.23;;;10.90;99.90;;;;;;4857635;29;20694;-77
2023/10/30 01:56:20;;;;;;;12.30;11.60;;;10.90;99.90;;;;;;4850484;29;20629;-78
2023/10/30 01:58:49;;;;;;;12.80;12.00;;;10.80;99.90;;;;;;4847662;29;20210;-78
2023/10/30 02:01:16;;;;;;;13.77;12.97;;;10.70;99.90;;;;;;4843111;29;20588;-79
2023/10/30 02:03:42;;;;;;;13.70;12.90;;;10.70;99.90;;;;;;4843414;29;20627;-78
2023/10/30 02:06:09;;;;;;;13.47;12.73;;;10.70;99.90;;;;;;4848870;29;20206;-78
2023/10/30 02:08:37;;;;;;;14.13;13.23;;;10.60;99.90;;;;;;4873397;29;20564;-77
2023/10/30 02:11:04;;;;;;;14.23;13.27;;;10.60;99.90;;;;;;4851514;29;20233;-78
2023/10/30 02:13:30;;;;;;;15.23;14.23;;;10.50;99.90;;;;;;4862645;29;20234;-78
2023/10/30 02:15:59;;;;;;;15.07;14.03;;;10.40;99.90;;;;;;4849251;29;20221;-78
2023/10/30 02:18:25;;;;;;;14.20;13.30;;;10.40;99.90;;;;;;4850235;29;20198;-78
2023/10/30 02:20:53;;;;;;;13.57;12.77;;;10.40;99.90;;;;;;4846122;29;20203;-78
2023/10/30 02:23:20;;;;;;;13.73;12.93;;;10.40;99.90;;;;;;4855604;29;20723;-78
2023/10/30 02:25:48;;;;;;;13.67;12.87;;;10.30;99.90;;;;;;4848534;29;20213;-78
2023/10/30 02:28:16;;;;;;;13.30;12.60;;;10.30;99.90;;;;;;4848158;29;20205;-78
2023/10/30 02:30:43;;;;;;;13.27;12.57;;;10.10;99.90;;;;;;4844717;29;20689;-77
2023/10/30 02:33:09;;;;;;;14.00;13.10;;;10.10;99.90;;;;;;4868363;29;20610;-78
2023/10/30 02:35:36;;;;;;;13.93;12.63;;;10.00;99.90;;;;;;4864329;29;20211;-78
2023/10/30 02:38:03;;;;;;;13.07;12.37;;;10.00;99.90;;;;;;4850210;29;20264;-78
2023/10/30 02:40:30;;;;;;;13.30;12.50;;;9.90;99.90;;;;;;4851091;29;20210;-78
2023/10/30 02:42:58;;;;;;;13.23;12.53;;;9.90;99.90;;;;;;4851809;29;20253;-79
2023/10/30 02:45:25;;;;;;;12.57;11.70;;;9.80;99.90;;;;;;4848202;29;20198;-77
2023/10/30 02:47:52;;;;;;;12.20;11.47;;;9.80;99.90;;;;;;4845836;29;20214;-78
2023/10/30 02:50:19;;;;;;;11.80;11.10;;;9.70;99.90;;;;;;4846498;29;20224;-77
2023/10/30 02:52:45;;;;;;;11.93;11.27;;;9.70;99.90;;;;;;4848102;29;20206;-78
2023/10/30 02:55:12;;;;;;;13.60;12.70;;;9.70;99.90;;;;;;4852271;29;20251;-78
2023/10/30 02:57:40;;;;;;;13.80;13.00;;;9.80;99.90;;;;;;4851987;29;20207;-78
2023/10/30 03:00:09;;;;;;;13.77;12.97;;;9.80;99.90;;;;;;4847217;29;20207;-78
2023/10/30 03:02:36;;;;;;;13.60;12.80;;;9.70;99.90;;;;;;4853035;29;20202;-77
2023/10/30 03:05:05;;;;;;;13.73;12.93;;;9.70;99.90;;;;;;4849967;29;20515;-78
2023/10/30 03:07:32;;;;;;;14.20;13.40;;;9.80;99.90;;;;;;4850030;29;20202;-77
2023/10/30 03:09:59;;;;;;;14.17;13.37;;;9.70;99.90;;;;;;4855650;29;20582;-78
2023/10/30 03:12:26;;;;;;;13.47;12.67;;;9.70;99.90;;;;;;4847183;29;20742;-78
2023/10/30 03:14:53;;;;;;;13.80;13.00;;;9.70;99.90;;;;;;4909647;23;20220;-79
2023/10/30 03:17:22;;;;;;;14.47;13.50;;;9.70;99.90;;;;;;4886557;29;20207;-79
2023/10/30 03:19:48;;;;;;;14.83;13.83;;;9.70;99.90;;;;;;4886290;29;20273;-78
2023/10/30 03:22:17;;;;;;;13.70;12.93;;;9.70;99.90;;;;;;4887865;29;20189;-79
2023/10/30 03:24:45;;;;;;;13.87;13.07;;;9.80;99.90;;;;;;4878088;29;20304;-78
2023/10/30 03:27:11;;;;;;;15.10;14.30;;;9.80;99.90;;;;;;4871615;29;20580;-79
2023/10/30 03:29:39;;;;;;;15.10;14.20;;;9.80;99.90;;;;;;4880985;29;20208;-78
2023/10/30 03:32:06;;;;;;;14.60;13.60;;;9.90;99.90;;;;;;4870714;29;20212;-79
2023/10/30 03:34:36;;;;;;;14.33;13.47;;;9.90;99.90;;;;;;4870897;29;20222;-78
2023/10/30 03:37:03;;;;;;;14.63;13.77;;;9.90;99.90;;;;;;4866655;29;20209;-79
2023/10/30 03:39:30;;;;;;;14.83;13.93;;;10.00;99.90;;;;;;4870874;29;20209;-79
2023/10/30 03:41:57;;;;;;;14.70;13.87;;;10.00;99.90;;;;;;4870448;29;20206;-79
2023/10/30 03:44:26;;;;;;;15.73;14.80;;;10.00;99.90;;;;;;4871590;29;20707;-79
2023/10/30 03:46:54;;;;;;;14.80;13.90;;;10.00;99.90;;;;;;4872014;29;20211;-78
2023/10/30 03:49:21;;;;;;;14.93;13.93;;;10.00;99.90;;;;;;4871402;29;20197;-80
2023/10/30 03:51:49;;;;;;;15.50;14.60;;;9.90;99.90;;;;;;4875771;29;20217;-81
2023/10/30 03:54:16;;;;;;;14.90;14.00;;;9.80;99.90;;;;;;4875931;29;20229;-80
2023/10/30 03:56:43;;;;;;;15.17;14.30;;;9.80;99.90;;;;;;4880529;29;20257;-80
2023/10/30 03:59:10;;;;;;;15.23;14.13;;;9.80;99.90;;;;;;4872339;29;20209;-81
2023/10/30 04:01:37;;;;;;;15.40;14.50;;;9.70;99.90;;;;;;4877807;29;20201;-80
2023/10/30 04:04:06;;;;;;;15.67;14.73;;;9.70;99.90;;;;;;4885384;29;20308;-81
2023/10/30 04:06:32;;;;;;;15.50;14.50;;;9.60;99.90;;;;;;4871787;29;20250;-81
2023/10/30 04:09:03;;;;;;;14.80;13.90;;;9.50;99.90;;;;;;4883525;29;20214;-80
2023/10/30 04:11:30;;;;;;;15.33;14.43;;;9.50;99.90;;;;;;4879804;29;20224;-80
2023/10/30 04:13:57;;;;;;;15.20;14.20;;;9.40;99.90;;;;;;4877731;29;20603;-80
2023/10/30 04:16:24;;;;;;;14.80;13.90;;;9.30;99.90;;;;;;4877497;29;20235;-80
2023/10/30 04:18:51;;;;;;;14.47;13.67;;;9.30;99.90;;;;;;4874391;29;20202;-80
2023/10/30 04:21:18;;;;;;;14.50;13.50;;;9.30;99.90;;;;;;4868399;29;20589;-80
2023/10/30 04:23:44;;;;;;;14.93;14.03;;;9.30;99.90;;;;;;4879844;29;20233;-79
2023/10/30 04:26:12;;;;;;;15.23;14.23;;;9.40;99.90;;;;;;4868193;29;20206;-78
2023/10/30 04:28:39;;;;;;;15.00;14.10;;;9.40;99.90;;;;;;4875887;29;20250;-82
2023/10/30 04:31:06;;;;;;;16.00;15.00;;;9.40;99.90;;;;;;4883724;29;20225;-79
2023/10/30 04:33:33;;;;;;;15.70;14.70;;;9.50;99.90;;;;;;4876966;29;20221;-80
2023/10/30 04:36:02;;;;;;;15.47;14.50;;;9.50;99.90;;;;;;4878876;29;20760;-80
2023/10/30 04:38:31;;;;;;;15.53;14.40;;;9.50;99.90;;;;;;4876382;29;20214;-80
2023/10/30 04:40:58;;;;;;;14.70;13.80;;;9.60;99.90;;;;;;4869477;29;20305;-80
2023/10/30 04:43:26;;;;;;;15.70;14.70;;;9.60;99.90;;;;;;4881165;29;20225;-79
2023/10/30 04:45:53;;;;;;;16.10;15.00;;;9.60;99.90;;;;;;4878955;29;20224;-79
2023/10/30 04:48:20;;;;;;;15.47;14.47;;;9.60;99.90;;;;;;4878850;29;20201;-78
2023/10/30 04:50:47;;;;;;;16.10;15.10;;;9.60;99.90;;;;;;4875516;29;20225;-79
2023/10/30 04:53:14;;;;;;;14.97;14.07;;;9.60;99.90;;;;;;4879491;29;20272;-78
2023/10/30 04:55:41;;;;;;;14.90;14.00;;;9.60;99.90;;;;;;4861555;29;20371;-78
2023/10/30 04:58:08;;;;;;;15.73;14.63;;;9.60;99.90;;;;;;4876495;29;20213;-77
2023/10/30 05:00:36;;;;;;;16.17;15.17;;;9.70;99.90;;;;;;4869145;29;20292;-77
2023/10/30 05:03:03;;;;;;;17.50;16.37;;;9.70;99.90;;;;;;4866341;29;20206;-78
2023/10/30 05:05:30;;;;;;;15.70;14.70;;;9.70;99.90;;;;;;4876777;29;20245;-77
2023/10/30 05:07:57;;;;;;;15.70;14.63;;;9.70;99.90;;;;;;4861347;29;20201;-78
2023/10/30 05:10:24;;;;;;;15.63;14.63;;;9.70;99.90;;;;;;4862523;29;20201;-78
2023/10/30 05:12:51;;;;;;;15.23;14.33;;;9.70;99.90;;;;;;4861191;29;20767;-77
2023/10/30 05:15:18;;;;;;;16.33;15.13;;;9.60;99.90;;;;;;4869020;29;20309;-78
2023/10/30 05:17:46;;;;;;;15.40;14.40;;;9.60;99.90;;;;;;4859534;29;20225;-77
2023/10/30 05:20:13;;;;;;;15.47;14.47;;;9.60;99.90;;;;;;4868202;29;20201;-77
2023/10/30 05:22:40;;;;;;;14.90;13.90;;;9.50;99.90;;;;;;4862059;29;20474;-77
2023/10/30 05:25:08;;;;;;;15.07;14.07;;;9.40;99.90;;;;;;4869135;29;20649;-77
2023/10/30 05:27:34;;;;;;;15.43;14.43;;;9.40;99.90;;;;;;4866580;29;20202;-78
2023/10/30 05:30:02;;;;;;;15.60;14.60;;;9.30;99.90;;;;;;4864117;29;20209;-77
2023/10/30 05:32:29;;;;;;;15.60;14.60;;;9.30;99.90;;;;;;4864599;29;20316;-78
2023/10/30 05:34:57;;;;;;;16.23;15.13;;;9.20;99.90;;;;;;4870009;29;20233;-77
2023/10/30 05:37:24;;;;;;;15.87;14.77;;;9.20;99.90;;;;;;4866430;29;20198;-77
2023/10/30 05:39:52;;;;;;;15.47;14.40;;;9.10;99.90;;;;;;4862587;29;20214;-77
2023/10/30 05:42:18;;;;;;;15.60;14.60;;;9.10;99.90;;;;;;4871234;29;20752;-77
2023/10/30 05:44:46;;;;;;;16.03;14.83;;;9.10;99.90;;;;;;4858721;29;20218;-79
2023/10/30 05:47:13;;;;;;;17.47;16.30;;;9.00;99.90;;;;;;4869843;29;20193;-78
2023/10/30 05:49:40;;;;;;;16.40;15.40;;;9.00;99.90;;;;;;4858258;29;20309;-78
2023/10/30 05:52:09;;;;;;;18.83;17.43;;;9.00;99.90;;;;;;4866546;29;20221;-78
2023/10/30 05:54:36;;;;;;;18.37;17.17;;;9.00;99.90;;;;;;4864255;29;20320;-78
2023/10/30 05:57:03;;;;;;;18.07;16.87;;;9.00;99.90;;;;;;4878079;29;20249;-78
2023/10/30 05:59:30;;;;;;;17.63;16.53;;;8.90;99.90;;;;;;4868076;29;20231;-78
2023/10/30 06:01:56;;;;;;;19.03;17.73;;;8.90;99.90;;;;;;4862766;29;20201;-77
2023/10/30 06:04:24;;;;;;;18.23;17.03;;;8.90;99.90;;;;;;4876352;29;20281;-80
2023/10/30 06:06:51;;;;;;;18.17;16.87;;;8.80;99.90;;;;;;4877942;29;20686;-81
2023/10/30 06:09:19;;;;;;;18.90;17.60;;;8.80;99.90;;;;;;4872767;29;20262;-80
2023/10/30 06:11:48;;;;;;;18.67;17.27;;;8.70;99.90;;;;;;4866667;29;20230;-81
2023/10/30 06:14:15;;;;;;;18.20;17.00;;;8.70;99.90;;;;;;4863405;29;20237;-81
2023/10/30 06:16:43;;;;;;;20.60;19.30;;;8.70;99.90;;;;;;4865055;29;20455;-80
2023/10/30 06:19:10;;;;;;;18.33;17.03;;;8.70;99.90;;;;;;4872266;29;20198;-80
2023/10/30 06:21:38;;;;;;;18.33;17.13;;;8.70;99.90;;;;;;4870326;29;20228;-80
2023/10/30 06:24:06;;;;;;;19.03;17.73;;;8.70;99.90;;;;;;4870060;29;20253;-78
2023/10/30 06:26:35;;;;;;;18.67;17.37;;;8.80;99.90;;;;;;4867699;29;20204;-77
2023/10/30 06:29:01;;;;;;;18.27;17.07;;;8.70;99.90;;;;;;4862724;29;20634;-78
2023/10/30 06:31:28;;;;;;;18.67;17.47;;;8.70;99.90;;;;;;4873919;29;20198;-79
2023/10/30 06:33:55;;;;;;;20.30;18.80;;;8.70;99.90;;;;;;4868814;29;20232;-80
2023/10/30 06:36:22;;;;;;;18.40;17.10;;;8.70;99.90;;;;;;4865933;29;20755;-80
2023/10/30 06:38:49;;;;;;;19.50;18.10;;;8.70;99.90;;;;;;4871734;29;20209;-78
2023/10/30 06:41:16;;;;;;;18.20;16.90;;;8.80;99.90;;;;;;4868078;29;20234;-78
2023/10/30 06:43:44;;;;;;;17.77;16.50;;;8.80;99.90;;;;;;4874721;29;20221;-78
2023/10/30 06:46:11;;;;;;;17.63;16.20;;;8.90;99.90;;;;;;4871192;29;20257;-78
2023/10/30 06:48:38;;;;;;;17.77;16.57;;;8.90;99.90;;;;;;4870710;29;20206;-78
2023/10/30 06:51:05;;;;;;;18.60;17.33;;;9.00;99.90;;;;;;4873744;29;20217;-78
2023/10/30 06:53:32;;;;;;;18.93;17.53;;;9.00;99.90;;;;;;4877424;29;20229;-78
2023/10/30 06:55:58;;;;;;;18.57;17.33;;;9.10;99.90;;;;;;4871458;29;20234;-78
2023/10/30 06:58:25;;;;;;;17.67;16.37;;;9.20;99.90;;;;;;4867611;29;20201;-80
2023/10/30 07:01:02;;;;;;;18.07;16.83;;;9.30;99.90;;;;;;4876236;29;20206;-81
2023/10/30 07:03:29;;;;;;;17.33;16.13;;;9.30;99.90;;;;;;4880001;29;20597;-80
2023/10/30 07:05:56;;;;;;;18.40;17.10;;;9.40;99.90;;;;;;4875252;29;20205;-82
2023/10/30 07:08:23;;;;;;;18.20;16.90;;;9.50;99.90;;;;;;4872290;29;20265;-79
2023/10/30 07:13:35;;;;;;;19.00;17.60;;;9.60;99.90;;;;;;4877727;29;20300;-80
2023/10/30 07:16:03;;;;;;;17.83;16.60;;;9.70;99.90;;;;;;4877259;29;20202;-80
2023/10/30 07:18:30;;;;;;;17.70;16.50;;;9.90;99.90;;;;;;4876189;29;20197;-80
2023/10/30 07:20:57;;;;;;;18.20;16.80;;;10.00;99.90;;;;;;4874669;29;20213;-81
2023/10/30 07:23:24;;;;;;;16.63;15.53;;;10.10;99.90;;;;;;4875542;29;20257;-80
2023/10/30 07:25:50;;;;;;;15.77;14.67;;;10.20;99.90;;;;;;4869653;29;20245;-81
2023/10/30 07:28:21;;;;;;;18.00;16.80;;;10.30;99.90;;;;;;4872972;29;20210;-80
2023/10/30 07:30:50;;;;;;;18.00;16.70;;;10.30;99.90;;;;;;4876117;29;20227;-81
2023/10/30 07:33:18;;;;;;;16.73;15.63;;;10.30;99.90;;;;;;4874059;29;20303;-81
2023/10/30 07:35:47;;;;;;;18.63;17.33;;;10.40;99.90;;;;;;4867173;29;20204;-81
2023/10/30 07:38:13;;;;;;;17.03;15.83;;;10.50;99.90;;;;;;4874908;29;20210;-81
2023/10/30 07:40:40;;;;;;;16.40;15.27;;;10.60;99.90;;;;;;4876036;29;20260;-80
2023/10/30 07:43:07;;;;;;;17.13;15.93;;;10.70;99.90;;;;;;4877866;29;20198;-80
2023/10/30 07:45:40;;;;;;;19.37;17.87;;;10.90;99.90;;;;;;4868313;29;20673;-81
2023/10/30 07:48:07;;;;;;;19.40;17.70;;;11.20;99.90;;;;;;4876560;29;20232;-80
2023/10/30 07:50:37;;;;;;;17.23;16.00;;;11.40;99.90;;;;;;4873414;29;20224;-81
2023/10/30 07:53:04;;;;;;;18.07;16.87;;;11.80;99.90;;;;;;4874417;29;20226;-81
2023/10/30 07:55:31;;;;;;;17.23;16.03;;;12.20;99.90;;;;;;4876378;29;20204;-81
2023/10/30 07:57:58;;;;;;;17.70;16.43;;;12.50;99.90;;;;;;4882749;29;20666;-81
2023/10/30 08:00:25;;;;;;;17.10;15.87;;;12.90;99.90;;;;;;4880215;29;20209;-81
2023/10/30 08:02:52;;;;;;;16.07;14.97;;;13.30;99.90;;;;;;4874728;29;20201;-81
2023/10/30 08:05:19;;;;;;;15.27;14.17;;;13.60;99.90;;;;;;4872348;29;20233;-81
2023/10/30 08:07:47;;;;;;;12.23;11.33;;;13.90;99.90;;;;;;4874337;29;20209;-80
2023/10/30 08:10:14;;;;;;;11.67;10.77;;;14.30;99.90;;;;;;4879496;29;20209;-82
2023/10/30 08:12:41;;;;;;;11.70;10.80;;;14.50;99.90;;;;;;4874332;29;20221;-83
2023/10/30 08:15:09;;;;;;;10.37;9.67;;;14.80;99.90;;;;;;4869922;29;20264;-81
2023/10/30 08:17:36;;;;;;;13.73;12.73;;;15.00;99.90;;;;;;4873972;29;20199;-82
2023/10/30 08:20:04;;;;;;;12.80;11.90;;;15.10;99.90;;;;;;4867150;29;20219;-81
2023/10/30 08:22:32;;;;;;;13.30;12.30;;;15.20;99.90;;;;;;4880716;29;20205;-82
2023/10/30 08:25:00;;;;;;;11.93;11.00;;;15.20;99.90;;;;;;4864026;29;20248;-82
2023/10/30 08:27:27;;;;;;;14.27;13.17;;;15.30;99.90;;;;;;4872356;29;20291;-81
2023/10/30 08:29:54;;;;;;;14.10;13.00;;;15.20;99.90;;;;;;4877826;29;20248;-81
2023/10/30 08:32:21;;;;;;;11.83;10.90;;;15.30;99.90;;;;;;4868418;29;20259;-81
2023/10/30 08:34:48;;;;;;;13.50;12.50;;;15.30;99.90;;;;;;4868725;29;20225;-81
2023/10/30 08:37:15;;;;;;;11.10;10.33;;;15.20;99.90;;;;;;4868208;29;20620;-82
2023/10/30 08:39:42;;;;;;;12.03;11.23;;;15.20;99.90;;;;;;4878859;29;20202;-80
2023/10/30 08:42:10;;;;;;;12.53;11.73;;;15.20;99.90;;;;;;4878859;29;20242;-81
2023/10/30 08:44:37;;;;;;;12.33;11.43;;;15.30;99.90;;;;;;4873515;29;20231;-82
2023/10/30 08:47:04;;;;;;;7.07;6.47;;;15.40;99.90;;;;;;4867294;29;20747;-81
2023/10/30 08:49:32;;;;;;;9.03;8.43;;;15.50;99.90;;;;;;4868913;29;20228;-82
2023/10/30 08:51:59;;;;;;;12.03;11.23;;;15.60;99.90;;;;;;4877143;29;20252;-82
2023/10/30 08:54:26;;;;;;;5.20;4.70;;;15.70;99.90;;;;;;4877664;29;20289;-82
2023/10/30 08:56:53;;;;;;;4.73;4.33;;;15.80;99.90;;;;;;4876320;29;20210;-82
2023/10/30 08:59:21;;;;;;;11.90;11.00;;;15.80;99.90;;;;;;4870740;29;20205;-82
2023/10/30 09:01:48;;;;;;;12.70;11.80;;;15.70;99.90;;;;;;4888732;29;20480;-81
2023/10/30 09:04:15;;;;;;;11.13;10.43;;;15.60;99.90;;;;;;4878724;29;20250;-82
2023/10/30 09:06:42;;;;;;;10.67;9.87;;;15.60;99.90;;;;;;4881603;29;20214;-82
2023/10/30 09:09:11;;;;;;;10.80;10.10;;;15.60;99.90;;;;;;4880394;29;20199;-82
2023/10/30 09:11:38;;;;;;;4.23;3.83;;;15.70;99.90;;;;;;4881280;29;20217;-82
2023/10/30 09:14:05;;;;;;;4.07;3.70;;;15.80;99.90;;;;;;4876581;29;20233;-81
2023/10/30 09:16:33;;;;;;;11.50;10.80;;;15.90;99.90;;;;;;4872470;29;20292;-81
2023/10/30 09:19:00;;;;;;;3.97;3.53;;;16.10;99.90;;;;;;4881654;29;20197;-81
2023/10/30 09:21:27;;;;;;;11.30;10.50;;;16.20;99.90;;;;;;4876789;29;20216;-82
2023/10/30 09:23:54;;;;;;;9.27;8.67;;;16.20;99.90;;;;;;4878975;29;20774;-82
2023/10/30 09:26:20;;;;;;;10.57;9.77;;;16.20;99.90;;;;;;4883790;29;20205;-82
2023/10/30 09:28:47;;;;;;;10.53;9.83;;;16.10;99.90;;;;;;4875853;29;20804;-81
2023/10/30 09:31:14;;;;;;;9.80;9.20;;;16.00;99.90;;;;;;4874219;29;20679;-81
2023/10/30 09:33:42;;;;;;;4.10;3.70;;;16.00;99.90;;;;;;4883068;29;20225;-81
2023/10/30 09:36:09;;;;;;;4.10;3.70;;;16.00;99.90;;;;;;4876506;29;20209;-81
2023/10/30 09:38:36;;;;;;;4.40;4.00;;;16.00;99.90;;;;;;4879853;29;20272;-81
2023/10/30 09:41:05;;;;;;;6.50;6.00;;;16.00;99.90;;;;;;4882113;29;20217;-81
2023/10/30 09:43:33;;;;;;;5.90;5.50;;;16.00;99.90;;;;;;4873484;29;20228;-81
2023/10/30 09:46:02;;;;;;;4.13;3.43;;;16.00;99.90;;;;;;4876250;29;20280;-81
2023/10/30 09:48:32;;;;;;;3.87;3.57;;;16.00;99.90;;;;;;4879402;29;20238;-81
2023/10/30 09:51:00;;;;;;;4.10;3.80;;;16.00;99.90;;;;;;4873700;29;20205;-80
2023/10/30 09:53:28;;;;;;;10.30;9.70;;;16.00;99.90;;;;;;4875238;29;20221;-81
2023/10/30 09:55:57;;;;;;;9.90;9.30;;;16.00;99.90;;;;;;4878941;29;20231;-81
2023/10/30 09:58:24;;;;;;;10.37;9.67;;;16.10;99.90;;;;;;4875558;29;20261;-81
2023/10/30 10:00:51;;;;;;;10.57;9.97;;;16.10;99.90;;;;;;4874343;29;20218;-80
2023/10/30 10:03:20;;;;;;;11.27;10.57;;;16.20;99.90;;;;;;4874987;29;20196;-81
2023/10/30 10:05:55;;;;;;;3.90;3.60;;;16.10;99.90;;;;;;4877031;29;20198;-81
2023/10/30 10:08:23;;;;;;;3.80;3.50;;;16.10;99.90;;;;;;4865393;29;20290;-80
2023/10/30 10:10:57;;;;;;;8.60;8.00;;;16.10;99.90;;;;;;4878425;29;20205;-81
2023/10/30 10:13:25;;;;;;;10.40;9.60;;;16.10;99.90;;;;;;4879424;29;20705;-81
2023/10/30 10:15:52;;;;;;;10.13;9.53;;;16.10;99.90;;;;;;4882534;29;20230;-81
2023/10/30 10:18:27;;;;;;;10.77;10.07;;;16.10;99.90;;;;;;4868816;29;20202;-81
2023/10/30 10:20:58;;;;;;;10.40;9.80;;;16.10;99.90;;;;;;4865037;29;20258;-80
2023/10/30 10:23:30;;;;;;;9.37;8.77;;;16.00;99.90;;;;;;4873869;29;20240;-79
2023/10/30 10:25:57;;;;;;;8.70;8.10;;;16.00;99.90;;;;;;4882831;29;20232;-80
2023/10/30 10:28:25;;;;;;;8.93;8.33;;;15.90;99.90;;;;;;4879965;29;20209;-80
2023/10/30 10:30:53;;;;;;;8.13;7.63;;;15.90;99.90;;;;;;4886912;29;20214;-80
2023/10/30 10:33:21;;;;;;;7.97;7.47;;;16.00;99.90;;;;;;4884564;29;20213;-81
2023/10/30 10:35:52;;;;;;;7.77;7.23;;;16.10;99.90;;;;;;4874987;29;20690;-82
2023/10/30 10:38:21;;;;;;;9.70;8.90;;;16.10;99.90;;;;;;4876181;29;20232;-81
2023/10/30 10:40:51;;;;;;;9.10;8.50;;;16.20;99.90;;;;;;4880895;29;20615;-82
2023/10/30 10:43:20;;;;;;;6.00;5.60;;;16.20;99.90;;;;;;4871930;29;20284;-81
2023/10/30 10:45:47;;;;;;;4.73;4.37;;;16.20;99.90;;;;;;4879266;29;20201;-82
2023/10/30 10:48:15;;;;;;;4.03;3.73;;;16.20;99.90;;;;;;4872960;29;20201;-82
2023/10/30 10:50:42;;;;;;;3.83;3.50;;;16.20;99.90;;;;;;4879547;29;20697;-81
2023/10/30 10:53:11;;;;;;;9.17;8.57;;;16.20;99.90;;;;;;4873044;29;20221;-81
2023/10/30 10:55:42;;;;;;;9.30;8.60;;;16.20;99.90;;;;;;4877635;29;20201;-81
2023/10/30 10:58:17;;;;;;;9.27;8.73;;;16.20;99.90;;;;;;4883859;29;20209;-81
2023/10/30 11:00:48;;;;;;;9.50;8.90;;;16.20;99.90;;;;;;4882638;29;20260;-81
2023/10/30 11:03:16;;;;;;;8.93;8.43;;;16.20;99.90;;;;;;4882107;29;20707;-80
2023/10/30 11:05:45;;;;;;;9.70;9.10;;;16.10;99.90;;;;;;4881137;29;20237;-81
2023/10/30 11:08:25;;;;;;;9.40;8.80;;;16.10;99.90;;;;;;4874919;29;20209;-81
2023/10/30 11:11:03;;;;;;;8.90;8.40;;;16.10;99.90;;;;;;4874839;29;20642;-80
2023/10/30 11:13:40;;;;;;;9.00;8.40;;;16.10;99.90;;;;;;4875797;29;20232;-78
2023/10/30 11:16:17;;;;;;;9.20;8.70;;;16.10;99.90;;;;;;4882802;29;20580;-80
2023/10/30 11:18:44;;;;;;;9.47;8.77;;;16.10;99.90;;;;;;4872079;29;20212;-81
2023/10/30 11:21:13;;;;;;;9.57;8.97;;;16.10;99.90;;;;;;4878144;29;20213;-82
2023/10/30 11:23:56;;;;;;;9.13;8.57;;;16.00;99.90;;;;;;4878634;29;20711;-82
2023/10/30 11:26:40;;;;;;;9.70;9.10;;;16.00;99.90;;;;;;4865406;29;20204;-82
2023/10/30 12:07:41;;;;;;;9.33;8.73;;;17.00;99.90;;;;;;4648521;30;20342;-80
2023/10/30 12:24:26;;;;;;;9.50;8.90;;;17.00;99.90;;;;;;4759075;29;20231;-81
2023/10/30 12:27:18;;;;;;;9.80;9.10;;;17.10;99.90;;;;;;4880363;29;20209;-81
2023/10/30 12:30:24;;;;;;;;;;;;;;;;;;;;;
2023/10/30 12:33:25;;;;;;;7.73;7.27;;;17.10;99.90;;;;;;4857506;29;20218;-80
2023/10/30 12:36:08;;;;;;;9.90;9.30;;;17.10;99.90;;;;;;4872190;29;20201;-81
2023/10/30 12:39:37;;;;;;;9.60;8.90;;;17.10;99.90;;;;;;4873089;29;20200;-81
2023/10/30 12:46:05;;;;;;;9.90;9.30;;;17.10;99.90;;;;;;4918230;23;20236;-78
2023/10/30 12:48:32;;;;;;;9.10;8.50;;;17.20;99.90;;;;;;4862856;29;20191;-79
2023/10/30 12:51:01;;;;;;;8.83;8.30;;;17.20;99.90;;;;;;4862552;29;20700;-79
2023/10/30 12:53:30;;;;;;;9.20;8.53;;;17.30;99.90;;;;;;4872581;29;20285;-78
2023/10/30 12:55:57;;;;;;;9.20;8.60;;;17.30;99.90;;;;;;4871502;29;20207;-81
2023/10/30 12:58:28;;;;;;;9.60;9.03;;;17.20;99.90;;;;;;4871415;29;20618;-81
2023/10/30 13:00:58;;;;;;;8.37;7.87;;;17.20;99.90;;;;;;4877840;29;20206;-81
2023/10/30 13:03:25;;;;;;;9.20;8.70;;;17.20;99.90;;;;;;4882732;29;20217;-78
2023/10/30 13:10:01;;;;;;;9.20;8.70;;;17.10;99.90;;;;;;4800864;29;20295;-82
2023/10/30 13:12:30;;;;;;;8.90;8.20;;;17.10;99.90;;;;;;4854432;29;20744;-81
2023/10/30 13:15:05;;;;;;;8.83;8.23;;;17.10;99.90;;;;;;4874139;29;20321;-79
2023/10/30 13:32:02;;;;;;;3.00;2.80;;;16.90;99.90;;;;;;5156401;23;20254;-78
2023/10/30 13:34:29;;;;;;;2.67;2.53;;;16.70;99.90;;;;;;4880188;29;20234;-80
2023/10/30 13:36:56;;;;;;;2.80;2.60;;;16.60;99.90;;;;;;4876449;29;20205;-79
2023/10/30 13:39:22;;;;;;;4.30;4.00;;;16.60;99.90;;;;;;4884297;29;20763;-80
2023/10/30 13:41:50;;;;;;;5.93;5.53;;;16.50;99.90;;;;;;4885072;29;20224;-79
2023/10/30 13:44:17;;;;;;;7.27;6.77;;;16.50;99.90;;;;;;4873692;29;20725;-81
2023/10/30 13:46:44;;;;;;;6.90;6.47;;;16.50;99.90;;;;;;4872867;29;20209;-81
2023/10/30 13:49:13;;;;;;;6.87;6.37;;;16.50;99.90;;;;;;4872576;29;20234;-80
2023/10/30 13:51:40;;;;;;;6.27;5.87;;;16.50;99.90;;;;;;4871015;29;20215;-80
2023/10/30 13:54:07;;;;;;;5.90;5.53;;;16.60;99.90;;;;;;4881977;29;20313;-81
2023/10/30 13:56:34;;;;;;;5.40;5.00;;;16.60;99.90;;;;;;4874936;29;20212;-79
2023/10/30 13:59:01;;;;;;;5.90;5.60;;;16.80;99.90;;;;;;4861853;29;20222;-79